createdAt,value
2024-04-06T00:00:23.476Z,43.74
2024-04-06T00:02:34.264Z,43.90
2024-04-06T00:04:25.234Z,44.00
2024-04-06T00:08:24.930Z,44.02
2024-04-06T00:10:16.363Z,44.19
2024-04-06T00:12:07.907Z,44.03
2024-04-06T00:13:59.002Z,44.31
2024-04-06T00:15:50.080Z,44.39
2024-04-06T00:17:41.342Z,44.67
2024-04-06T00:19:34.011Z,44.72
2024-04-06T00:21:25.224Z,45.00
2024-04-06T00:23:16.478Z,45.32
2024-04-06T00:25:07.716Z,45.65
2024-04-06T00:26:59.604Z,45.78
2024-04-06T00:28:50.578Z,46.17
2024-04-06T00:30:42.202Z,46.30
2024-04-06T00:32:33.789Z,46.94
2024-04-06T00:34:25.309Z,47.25
2024-04-06T00:36:17.391Z,47.14
2024-04-06T00:38:08.622Z,47.18
2024-04-06T00:40:01.484Z,47.61
2024-04-06T00:41:52.767Z,47.74
2024-04-06T00:43:44.143Z,47.90
2024-04-06T00:45:34.971Z,48.21
2024-04-06T00:47:25.873Z,48.66
2024-04-06T00:49:17.156Z,48.79
2024-04-06T00:51:07.920Z,48.88
2024-04-06T00:52:59.042Z,48.88
2024-04-06T00:54:49.935Z,49.58
2024-04-06T00:56:41.196Z,49.42
2024-04-06T00:58:32.078Z,49.67
2024-04-06T01:00:22.879Z,49.74
2024-04-06T01:02:14.200Z,49.90
2024-04-06T01:04:05.241Z,50.16
2024-04-06T01:05:55.992Z,50.40
2024-04-06T01:07:47.298Z,50.51
2024-04-06T01:09:38.344Z,50.49
2024-04-06T01:11:29.819Z,50.51
2024-04-06T01:13:21.074Z,50.57
2024-04-06T01:15:12.238Z,50.67
2024-04-06T01:17:03.391Z,50.76
2024-04-06T01:18:54.321Z,50.89
2024-04-06T01:20:47.389Z,51.07
2024-04-06T01:22:38.094Z,51.16
2024-04-06T01:24:32.851Z,51.24
2024-04-06T01:26:25.465Z,51.35
2024-04-06T01:28:16.326Z,51.36
2024-04-06T01:30:08.381Z,51.47
2024-04-06T01:31:59.325Z,51.75
2024-04-06T01:33:50.980Z,51.63
2024-04-06T01:35:41.839Z,51.65
2024-04-06T01:37:32.598Z,51.84
2024-04-06T01:39:23.715Z,52.02
2024-04-06T01:41:14.869Z,52.21
2024-04-06T01:43:06.066Z,52.32
2024-04-06T01:44:57.524Z,52.49
2024-04-06T01:46:48.487Z,52.52
2024-04-06T01:48:39.204Z,52.61
2024-04-06T01:50:30.274Z,52.63
2024-04-06T01:52:21.609Z,52.69
2024-04-06T01:54:12.715Z,52.88
2024-04-06T01:56:03.746Z,52.87
2024-04-06T01:57:54.413Z,52.88
2024-04-06T01:59:47.203Z,53.00
2024-04-06T02:01:38.821Z,53.15
2024-04-06T02:03:30.636Z,53.16
2024-04-06T02:05:22.101Z,53.34
2024-04-06T02:07:19.425Z,53.56
2024-04-06T02:09:10.554Z,53.53
2024-04-06T02:11:02.132Z,53.63
2024-04-06T02:12:55.704Z,53.89
2024-04-06T02:14:48.760Z,53.75
2024-04-06T02:16:39.734Z,53.99
2024-04-06T02:18:30.803Z,53.90
2024-04-06T02:20:22.048Z,53.92
2024-04-06T02:22:13.095Z,53.98
2024-04-06T02:24:03.999Z,54.17
2024-04-06T02:25:54.998Z,54.60
2024-04-06T02:27:45.974Z,54.51
2024-04-06T02:29:36.957Z,54.56
2024-04-06T02:31:28.822Z,54.54
2024-04-06T02:33:19.979Z,54.16
2024-04-06T02:35:10.864Z,54.36
2024-04-06T02:37:01.841Z,54.33
2024-04-06T02:38:52.973Z,54.32
2024-04-06T02:40:43.935Z,54.21
2024-04-06T02:42:34.881Z,54.59
2024-04-06T02:44:26.231Z,54.39
2024-04-06T02:46:17.848Z,54.42
2024-04-06T02:48:09.191Z,54.28
2024-04-06T02:50:00.177Z,54.34
2024-04-06T02:51:51.283Z,54.33
2024-04-06T02:53:42.299Z,54.69
2024-04-06T02:55:33.441Z,54.97
2024-04-06T02:57:24.093Z,55.33
2024-04-06T02:59:15.215Z,55.70
2024-04-06T03:01:05.902Z,56.05
2024-04-06T03:02:56.994Z,56.02
2024-04-06T03:04:48.280Z,56.22
2024-04-06T03:06:39.873Z,56.25
2024-04-06T03:09:40.289Z,56.30
2024-04-06T03:11:31.190Z,56.42
2024-04-06T03:13:22.479Z,56.57
2024-04-06T03:15:13.596Z,57.06
2024-04-06T03:17:05.357Z,57.11
2024-04-06T03:18:56.388Z,57.26
2024-04-06T03:20:48.129Z,57.20
2024-04-06T03:22:39.130Z,57.33
2024-04-06T03:24:30.431Z,57.26
2024-04-06T03:26:21.820Z,57.94
2024-04-06T03:28:13.658Z,57.83
2024-04-06T03:30:05.527Z,57.67
2024-04-06T03:31:56.920Z,57.72
2024-04-06T03:33:48.057Z,57.61
2024-04-06T03:35:39.287Z,57.69
2024-04-06T03:37:30.602Z,57.59
2024-04-06T03:39:21.972Z,57.83
2024-04-06T03:41:13.231Z,57.82
2024-04-06T03:43:04.531Z,57.80
2024-04-06T03:44:55.717Z,57.79
2024-04-06T03:46:47.144Z,57.76
2024-04-06T03:48:38.210Z,57.95
2024-04-06T03:50:29.450Z,57.93
2024-04-06T03:52:21.198Z,57.80
2024-04-06T03:54:12.369Z,58.00
2024-04-06T03:56:04.348Z,57.81
2024-04-06T03:57:55.747Z,58.13
2024-04-06T03:59:46.749Z,58.08
2024-04-06T04:01:38.140Z,58.16
2024-04-06T04:03:29.746Z,58.12
2024-04-06T04:05:21.465Z,58.07
2024-04-06T04:07:12.646Z,58.14
2024-04-06T04:09:04.198Z,58.00
2024-04-06T04:10:55.404Z,58.00
2024-04-06T04:12:46.621Z,58.12
2024-04-06T04:14:37.956Z,57.95
2024-04-06T04:16:29.366Z,57.67
2024-04-06T04:18:21.643Z,57.73
2024-04-06T04:20:13.398Z,57.59
2024-04-06T04:22:04.776Z,57.18
2024-04-06T04:23:55.993Z,57.34
2024-04-06T04:25:47.008Z,57.61
2024-04-06T04:27:38.079Z,57.81
2024-04-06T04:29:29.358Z,57.96
2024-04-06T04:31:20.917Z,57.81
2024-04-06T04:33:12.542Z,57.51
2024-04-06T04:35:04.198Z,57.79
2024-04-06T04:36:55.452Z,57.83
2024-04-06T04:38:46.594Z,57.95
2024-04-06T04:40:37.780Z,57.93
2024-04-06T04:42:28.848Z,57.79
2024-04-06T04:44:35.733Z,57.63
2024-04-06T04:46:31.754Z,57.73
2024-04-06T04:48:22.854Z,57.64
2024-04-06T04:50:14.054Z,57.68
2024-04-06T04:52:05.660Z,57.80
2024-04-06T04:53:57.176Z,57.60
2024-04-06T04:55:48.250Z,56.93
2024-04-06T04:57:39.561Z,56.92
2024-04-06T04:59:30.862Z,56.59
2024-04-06T05:01:22.140Z,56.59
2024-04-06T05:03:13.596Z,56.53
2024-04-06T05:05:04.916Z,55.95
2024-04-06T05:06:55.714Z,55.85
2024-04-06T05:08:46.821Z,55.94
2024-04-06T05:10:38.024Z,55.77
2024-04-06T05:12:29.315Z,55.91
2024-04-06T05:14:20.510Z,55.77
2024-04-06T05:16:11.533Z,55.90
2024-04-06T05:18:03.349Z,56.41
2024-04-06T05:19:54.813Z,56.16
2024-04-06T05:21:45.883Z,56.23
2024-04-06T05:23:37.484Z,56.09
2024-04-06T05:25:28.525Z,56.14
2024-04-06T05:27:20.902Z,56.07
2024-04-06T05:29:12.574Z,55.92
2024-04-06T05:31:04.426Z,55.59
2024-04-06T05:32:55.662Z,55.49
2024-04-06T05:34:46.926Z,55.29
2024-04-06T05:36:38.160Z,55.05
2024-04-06T05:38:29.537Z,55.00
2024-04-06T05:40:20.965Z,54.84
2024-04-06T05:42:12.199Z,54.66
2024-04-06T05:44:05.580Z,54.47
2024-04-06T05:46:03.182Z,54.35
2024-04-06T05:47:54.514Z,54.35
2024-04-06T05:49:45.946Z,54.19
2024-04-06T05:51:37.448Z,53.98
2024-04-06T05:53:28.758Z,53.79
2024-04-06T05:55:20.007Z,53.68
2024-04-06T05:57:11.872Z,53.51
2024-04-06T05:59:03.121Z,52.79
2024-04-06T06:00:54.504Z,52.61
2024-04-06T06:02:46.690Z,52.24
2024-04-06T06:04:37.856Z,52.26
2024-04-06T06:06:29.192Z,52.11
2024-04-06T06:08:20.445Z,51.60
2024-04-06T06:10:11.678Z,51.34
2024-04-06T06:12:03.256Z,50.77
2024-04-06T06:13:54.369Z,50.47
2024-04-06T06:15:45.600Z,50.74
2024-04-06T06:17:36.993Z,50.34
2024-04-06T06:19:27.982Z,49.44
2024-04-06T06:21:19.108Z,48.74
2024-04-06T06:23:10.247Z,48.64
2024-04-06T06:25:01.482Z,48.52
2024-04-06T06:26:52.811Z,48.83
2024-04-06T06:28:44.047Z,48.59
2024-04-06T06:30:35.367Z,47.15
2024-04-06T06:32:27.494Z,47.97
2024-04-06T06:34:20.840Z,48.23
2024-04-06T06:38:09.704Z,47.18
2024-04-06T06:41:54.585Z,46.87
2024-04-06T06:43:45.611Z,46.20
2024-04-06T06:45:36.782Z,45.92
2024-04-06T06:47:28.215Z,46.00
2024-04-06T06:49:19.464Z,45.81
2024-04-06T06:51:10.632Z,45.57
2024-04-06T06:53:01.914Z,45.86
2024-04-06T06:54:53.071Z,45.82
2024-04-06T06:56:44.824Z,45.74
2024-04-06T06:58:37.673Z,45.79
2024-04-06T07:00:29.078Z,44.35
2024-04-06T07:02:20.356Z,43.45
2024-04-06T07:04:13.450Z,44.67
2024-04-06T07:06:08.244Z,43.95
2024-04-06T07:07:59.978Z,44.11
2024-04-06T07:09:50.935Z,43.46
2024-04-06T07:11:43.230Z,42.77
2024-04-06T07:13:34.238Z,42.41
2024-04-06T07:15:25.548Z,43.12
2024-04-06T07:17:17.425Z,43.60
2024-04-06T07:19:09.036Z,44.05
2024-04-06T07:21:00.830Z,44.06
2024-04-06T07:22:51.790Z,43.45
2024-04-06T07:24:43.214Z,43.19
2024-04-06T07:26:34.384Z,43.07
2024-04-06T07:28:25.737Z,43.08
2024-04-06T07:30:17.228Z,42.63
2024-04-06T07:32:08.219Z,42.34
2024-04-06T07:33:59.462Z,40.90
2024-04-06T07:35:50.871Z,41.19
2024-04-06T07:37:41.904Z,41.82
2024-04-06T07:39:33.237Z,41.61
2024-04-06T07:41:24.317Z,41.01
2024-04-06T07:43:15.565Z,41.29
2024-04-06T07:45:06.716Z,41.06
2024-04-06T07:46:58.073Z,41.05
2024-04-06T07:48:49.369Z,40.18
2024-04-06T07:50:40.520Z,40.10
2024-04-06T07:52:33.685Z,40.20
2024-04-06T07:54:25.011Z,39.87
2024-04-06T07:56:16.360Z,40.29
2024-04-06T07:58:09.249Z,40.45
2024-04-06T08:00:02.611Z,40.74
2024-04-06T08:01:53.768Z,39.66
2024-04-06T08:03:45.556Z,40.36
2024-04-06T08:05:37.027Z,39.53
2024-04-06T08:07:28.437Z,39.64
2024-04-06T08:09:19.456Z,38.82
2024-04-06T08:11:10.701Z,38.55
2024-04-06T08:13:02.249Z,38.64
2024-04-06T08:14:53.436Z,39.17
2024-04-06T08:16:44.448Z,38.25
2024-04-06T08:18:35.863Z,38.07
2024-04-06T08:20:27.364Z,38.29
2024-04-06T08:22:18.663Z,37.93
2024-04-06T08:24:09.993Z,37.20
2024-04-06T08:26:01.492Z,37.77
2024-04-06T08:27:53.129Z,37.88
2024-04-06T08:29:44.390Z,38.41
2024-04-06T08:31:35.800Z,37.79
2024-04-06T08:33:26.842Z,38.38
2024-04-06T08:35:18.301Z,38.60
2024-04-06T08:37:10.094Z,38.84
2024-04-06T08:39:03.034Z,38.04
2024-04-06T08:40:53.955Z,38.52
2024-04-06T08:42:45.374Z,37.45
2024-04-06T08:44:46.113Z,37.27
2024-04-06T08:46:40.030Z,36.98
2024-04-06T08:48:32.539Z,36.45
2024-04-06T08:50:25.944Z,36.60
2024-04-06T08:52:17.964Z,36.01
2024-04-06T08:54:09.033Z,35.10
2024-04-06T08:56:12.232Z,35.79
2024-04-06T08:58:04.954Z,35.62
2024-04-06T08:59:57.211Z,37.09
2024-04-06T09:01:48.835Z,36.70
2024-04-06T09:03:40.114Z,36.22
2024-04-06T09:05:31.634Z,35.58
2024-04-06T09:07:23.025Z,34.54
2024-04-06T09:09:14.514Z,34.76
2024-04-06T09:11:13.007Z,35.05
2024-04-06T09:13:04.452Z,34.41
2024-04-06T09:14:55.938Z,33.52
2024-04-06T09:16:47.235Z,33.35
2024-04-06T09:18:39.857Z,33.91
2024-04-06T09:20:31.153Z,33.22
2024-04-06T09:22:22.741Z,33.65
2024-04-06T09:24:14.018Z,32.47
2024-04-06T09:26:05.457Z,32.55
2024-04-06T09:27:56.608Z,33.30
2024-04-06T09:29:48.704Z,32.16
2024-04-06T09:31:47.923Z,32.62
2024-04-06T09:33:39.367Z,33.06
2024-04-06T09:35:31.720Z,32.39
2024-04-06T09:37:27.204Z,30.86
2024-04-06T09:39:18.318Z,32.10
2024-04-06T09:41:10.027Z,30.64
2024-04-06T09:43:01.122Z,31.44
2024-04-06T09:44:54.007Z,31.44
2024-04-06T09:46:44.967Z,31.61
2024-04-06T09:48:36.326Z,31.78
2024-04-06T09:50:28.163Z,32.59
2024-04-06T09:52:22.238Z,31.54
2024-04-06T09:54:13.795Z,32.49
2024-04-06T09:56:05.556Z,32.50
2024-04-06T09:57:57.234Z,32.66
2024-04-06T09:59:48.417Z,32.89
2024-04-06T10:01:45.778Z,32.66
2024-04-06T10:03:37.356Z,32.15
2024-04-06T10:05:46.755Z,32.05
2024-04-06T10:07:38.169Z,31.74
2024-04-06T10:09:33.060Z,31.20
2024-04-06T10:11:25.949Z,31.33
2024-04-06T10:13:20.912Z,31.38
2024-04-06T10:15:21.880Z,30.74
2024-04-06T10:17:16.416Z,30.89
2024-04-06T10:19:09.885Z,31.33
2024-04-06T10:21:11.294Z,30.39
2024-04-06T10:23:02.420Z,31.23
2024-04-06T10:24:55.989Z,30.42
2024-04-06T10:26:48.112Z,30.90
2024-04-06T10:28:40.880Z,30.94
2024-04-06T10:30:35.894Z,30.51
2024-04-06T10:32:26.824Z,29.81
2024-04-06T10:34:18.001Z,29.71
2024-04-06T10:36:13.780Z,30.46
2024-04-06T10:38:07.719Z,30.26
2024-04-06T10:39:58.835Z,31.53
2024-04-06T10:41:50.511Z,30.90
2024-04-06T10:43:42.443Z,32.23
2024-04-06T10:45:33.299Z,31.02
2024-04-06T10:47:26.327Z,31.86
2024-04-06T10:49:17.369Z,32.35
2024-04-06T10:51:08.767Z,31.63
2024-04-06T10:53:01.495Z,30.83
2024-04-06T10:54:53.320Z,31.74
2024-04-06T10:56:45.058Z,30.38
2024-04-06T10:58:36.317Z,30.73
2024-04-06T11:00:27.686Z,31.17
2024-04-06T11:02:19.031Z,32.19
2024-04-06T11:04:13.317Z,31.69
2024-04-06T11:06:05.023Z,32.34
2024-04-06T11:09:45.466Z,30.91
2024-04-06T11:11:36.424Z,32.01
2024-04-06T11:13:27.589Z,32.16
2024-04-06T11:15:18.791Z,30.84
2024-04-06T11:17:12.033Z,30.94
2024-04-06T11:19:03.049Z,30.96
2024-04-06T11:20:53.890Z,28.93
2024-04-06T11:22:46.182Z,29.81
2024-04-06T11:24:39.058Z,29.04
2024-04-06T11:26:31.522Z,28.95
2024-04-06T11:28:23.391Z,27.90
2024-04-06T11:30:18.849Z,28.64
2024-04-06T11:32:12.933Z,28.94
2024-04-06T11:34:04.168Z,28.74
2024-04-06T11:35:55.599Z,28.91
2024-04-06T11:37:46.986Z,29.44
2024-04-06T11:39:38.337Z,29.14
2024-04-06T11:41:29.476Z,29.49
2024-04-06T11:43:20.894Z,29.21
2024-04-06T11:45:11.917Z,28.23
2024-04-06T11:47:03.506Z,29.50
2024-04-06T11:48:54.846Z,28.69
2024-04-06T11:50:46.425Z,29.23
2024-04-06T11:52:37.363Z,28.63
2024-04-06T11:54:28.677Z,28.93
2024-04-06T11:56:20.758Z,29.58
2024-04-06T11:58:11.715Z,30.16
2024-04-06T12:00:03.696Z,29.85
2024-04-06T12:01:56.576Z,29.78
2024-04-06T12:03:47.692Z,28.66
2024-04-06T12:05:39.061Z,28.84
2024-04-06T12:07:31.122Z,29.35
2024-04-06T12:09:22.207Z,29.67
2024-04-06T12:11:13.480Z,29.84
2024-04-06T12:13:04.642Z,29.93
2024-04-06T12:14:55.897Z,30.06
2024-04-06T12:16:47.921Z,29.30
2024-04-06T12:18:39.034Z,29.68
2024-04-06T12:20:30.691Z,29.17
2024-04-06T12:22:22.079Z,28.50
2024-04-06T12:24:13.719Z,29.41
2024-04-06T12:26:05.522Z,29.54
2024-04-06T12:27:56.929Z,29.54
2024-04-06T12:29:48.236Z,28.65
2024-04-06T12:31:39.211Z,28.11
2024-04-06T12:33:30.664Z,27.94
2024-04-06T12:35:21.555Z,29.18
2024-04-06T12:37:14.317Z,29.35
2024-04-06T12:39:10.270Z,29.25
2024-04-06T12:41:01.636Z,27.61
2024-04-06T12:42:53.432Z,28.09
2024-04-06T12:44:44.291Z,28.26
2024-04-06T12:46:35.526Z,27.73
2024-04-06T12:48:27.664Z,28.04
2024-04-06T12:50:19.233Z,27.80
2024-04-06T12:52:10.567Z,28.41
2024-04-06T12:54:03.084Z,28.76
2024-04-06T12:55:54.502Z,28.79
2024-04-06T12:57:46.029Z,28.90
2024-04-06T12:59:37.189Z,27.51
2024-04-06T13:01:28.258Z,26.74
2024-04-06T13:03:19.526Z,27.64
2024-04-06T13:05:11.943Z,28.42
2024-04-06T13:07:02.810Z,28.80
2024-04-06T13:08:54.071Z,28.02
2024-04-06T13:10:45.583Z,27.91
2024-04-06T13:12:37.925Z,27.49
2024-04-06T13:14:29.109Z,27.44
2024-04-06T13:16:20.652Z,26.92
2024-04-06T13:18:11.767Z,27.27
2024-04-06T13:20:16.210Z,27.07
2024-04-06T13:22:07.162Z,26.82
2024-04-06T13:23:59.730Z,26.86
2024-04-06T13:25:54.605Z,28.26
2024-04-06T13:27:46.531Z,27.68
2024-04-06T13:29:38.730Z,26.66
2024-04-06T13:31:29.777Z,28.78
2024-04-06T13:33:21.633Z,28.68
2024-04-06T13:35:12.983Z,27.28
2024-04-06T13:37:04.712Z,27.23
2024-04-06T13:38:56.081Z,27.63
2024-04-06T13:40:47.609Z,27.34
2024-04-06T13:52:07.526Z,26.33
2024-04-06T13:53:58.561Z,27.53
2024-04-06T13:55:49.993Z,27.32
2024-04-06T13:57:46.874Z,27.70
2024-04-06T13:59:38.129Z,27.13
2024-04-06T14:01:31.039Z,28.62
2024-04-06T14:03:22.372Z,28.44
2024-04-06T14:05:13.670Z,27.88
2024-04-06T14:07:05.097Z,27.38
2024-04-06T14:08:56.411Z,27.38
2024-04-06T14:10:47.601Z,27.43
2024-04-06T14:12:38.809Z,27.90
2024-04-06T14:14:30.202Z,28.37
2024-04-06T14:16:21.638Z,28.07
2024-04-06T14:18:13.118Z,28.51
2024-04-06T14:20:12.045Z,28.52
2024-04-06T14:22:03.564Z,28.67
2024-04-06T14:23:55.041Z,29.10
2024-04-06T14:25:48.791Z,29.17
2024-04-06T14:27:40.975Z,29.90
2024-04-06T14:29:32.486Z,30.58
2024-04-06T14:31:23.999Z,30.24
2024-04-06T14:33:15.414Z,30.23
2024-04-06T14:35:06.823Z,30.36
2024-04-06T14:36:58.728Z,29.70
2024-04-06T14:38:49.971Z,29.67
2024-04-06T14:40:40.963Z,29.86
2024-04-06T14:42:32.011Z,29.42
2024-04-06T14:44:23.145Z,29.72
2024-04-06T14:46:14.376Z,29.89
2024-04-06T14:48:05.839Z,29.74
2024-04-06T14:49:57.439Z,29.61
2024-04-06T14:51:48.470Z,27.73
2024-04-06T14:53:39.801Z,28.77
2024-04-06T14:55:31.282Z,29.01
2024-04-06T14:57:22.619Z,29.56
2024-04-06T14:59:13.668Z,28.71
2024-04-06T15:01:04.579Z,28.78
2024-04-06T15:02:55.814Z,29.72
2024-04-06T15:04:47.312Z,30.22
2024-04-06T15:06:39.639Z,29.65
2024-04-06T15:08:31.068Z,30.23
2024-04-06T15:10:22.137Z,30.01
2024-04-06T15:12:13.785Z,29.78
2024-04-06T15:14:05.037Z,29.76
2024-04-06T15:15:56.430Z,30.13
2024-04-06T15:17:48.032Z,29.55
2024-04-06T15:19:39.402Z,29.69
2024-04-06T15:21:30.813Z,30.54
2024-04-06T15:23:23.317Z,30.41
2024-04-06T15:25:17.245Z,30.19
2024-04-06T15:27:11.250Z,30.95
2024-04-06T15:29:02.693Z,30.44
2024-04-06T15:30:53.807Z,30.82
2024-04-06T15:32:45.379Z,30.69
2024-04-06T15:34:36.347Z,30.71
2024-04-06T15:36:27.542Z,31.25
2024-04-06T15:38:18.778Z,31.44
2024-04-06T15:40:13.182Z,31.34
2024-04-06T15:42:04.800Z,31.50
2024-04-06T15:43:55.854Z,30.68
2024-04-06T15:45:47.063Z,30.91
2024-04-06T15:47:38.558Z,31.53
2024-04-06T15:49:29.965Z,31.68
2024-04-06T15:51:21.421Z,31.34
2024-04-06T15:53:12.535Z,31.22
2024-04-06T15:55:04.170Z,31.07
2024-04-06T15:56:57.398Z,31.10
2024-04-06T15:58:48.511Z,31.51
2024-04-06T16:00:59.579Z,32.10
2024-04-06T16:02:51.312Z,31.89
2024-04-06T16:04:42.695Z,32.25
2024-04-06T16:06:33.865Z,31.85
2024-04-06T16:08:26.972Z,31.90
2024-04-06T16:10:18.290Z,31.84
2024-04-06T16:12:09.627Z,31.97
2024-04-06T16:14:01.408Z,31.96
2024-04-06T16:15:52.577Z,31.95
2024-04-06T16:17:44.087Z,31.86
2024-04-06T16:19:36.054Z,32.37
2024-04-06T16:21:28.427Z,32.60
2024-04-06T16:23:19.408Z,32.93
2024-04-06T16:25:12.458Z,32.37
2024-04-06T16:27:04.433Z,32.48
2024-04-06T16:28:55.733Z,32.50
2024-04-06T16:30:50.277Z,32.74
2024-04-06T16:32:41.442Z,32.54
2024-04-06T16:34:36.273Z,32.45
2024-04-06T16:36:27.982Z,32.27
2024-04-06T16:38:19.490Z,33.00
2024-04-06T16:40:11.225Z,32.87
2024-04-06T16:42:02.552Z,33.16
2024-04-06T16:43:53.461Z,33.31
2024-04-06T16:45:44.928Z,33.70
2024-04-06T16:47:36.107Z,33.67
2024-04-06T16:49:27.364Z,33.83
2024-04-06T16:51:18.721Z,34.10
2024-04-06T16:53:10.445Z,34.05
2024-04-06T16:55:01.900Z,34.05
2024-04-06T16:56:53.533Z,34.35
2024-04-06T16:58:44.455Z,34.42
2024-04-06T17:00:35.529Z,34.74
2024-04-06T17:02:26.891Z,34.56
2024-04-06T17:04:18.184Z,34.73
2024-04-06T17:06:10.941Z,35.04
2024-04-06T17:08:03.682Z,34.98
2024-04-06T17:09:55.405Z,34.96
2024-04-06T17:21:17.228Z,35.88
2024-04-06T17:23:12.912Z,36.19
2024-04-06T17:25:06.515Z,36.18
2024-04-06T17:26:57.778Z,36.34
2024-04-06T17:28:48.800Z,36.37
2024-04-06T17:30:41.043Z,36.45
2024-04-06T17:32:32.409Z,36.72
2024-04-06T17:34:43.742Z,36.93
2024-04-06T17:36:34.739Z,37.15
2024-04-06T17:38:27.320Z,37.64
2024-04-06T17:40:18.584Z,37.92
2024-04-06T17:42:09.970Z,38.08
2024-04-06T17:44:01.038Z,38.31
2024-04-06T17:45:52.117Z,38.26
2024-04-06T17:47:43.359Z,38.33
2024-04-06T17:49:34.533Z,38.39
2024-04-06T17:51:26.158Z,38.48
2024-04-06T17:53:19.845Z,38.74
2024-04-06T17:55:11.128Z,38.83
2024-04-06T17:57:02.345Z,38.98
2024-04-06T17:58:53.618Z,39.39
2024-04-06T18:00:45.762Z,39.66
2024-04-06T18:02:37.053Z,39.80
2024-04-06T18:04:28.317Z,39.80
2024-04-06T18:06:20.534Z,39.69
2024-04-06T18:08:12.533Z,39.90
2024-04-06T18:10:04.103Z,39.62
2024-04-06T18:11:56.932Z,39.62
2024-04-06T18:13:48.825Z,39.94
2024-04-06T18:15:40.013Z,40.17
2024-04-06T18:17:31.060Z,40.27
2024-04-06T18:19:22.163Z,40.36
2024-04-06T18:21:14.575Z,40.14
2024-04-06T18:23:05.704Z,40.12
2024-04-06T18:24:57.588Z,40.40
2024-04-06T18:26:48.948Z,40.87
2024-04-06T18:28:39.948Z,41.01
2024-04-06T18:30:31.160Z,41.26
2024-04-06T18:32:22.350Z,41.37
2024-04-06T18:34:17.871Z,41.53
2024-04-06T18:36:09.493Z,41.54
2024-04-06T18:38:00.804Z,41.69
2024-04-06T18:39:52.700Z,41.96
2024-04-06T18:41:43.985Z,42.27
2024-04-06T18:43:36.120Z,42.54
2024-04-06T18:45:27.901Z,42.64
2024-04-06T18:47:19.330Z,42.77
2024-04-06T18:49:10.279Z,42.77
2024-04-06T18:51:01.628Z,42.84
2024-04-06T18:52:53.027Z,42.81
2024-04-06T18:54:44.035Z,43.04
2024-04-06T18:56:35.335Z,43.25
2024-04-06T18:58:28.138Z,43.52
2024-04-06T19:00:19.302Z,43.42
2024-04-06T19:02:11.598Z,43.58
2024-04-06T19:04:05.132Z,43.89
2024-04-06T19:05:56.352Z,43.62
2024-04-06T19:07:47.358Z,43.68
2024-04-06T19:09:38.937Z,44.14
2024-04-06T19:11:30.222Z,44.20
2024-04-06T19:13:22.122Z,44.31
2024-04-06T19:15:15.456Z,44.36
2024-04-06T19:17:07.386Z,44.20
2024-04-06T19:18:58.316Z,44.34
2024-04-06T19:20:49.906Z,44.34
2024-04-06T19:22:41.095Z,44.42
2024-04-06T19:24:32.903Z,44.49
2024-04-06T19:26:26.496Z,44.68
2024-04-06T19:28:18.722Z,45.18
2024-04-06T19:30:10.283Z,45.15
2024-04-06T19:32:01.347Z,45.18
2024-04-06T19:33:52.699Z,45.05
2024-04-06T19:35:44.013Z,45.03
2024-04-06T19:37:35.626Z,45.22
2024-04-06T19:39:27.138Z,45.48
2024-04-06T19:41:19.161Z,45.76
2024-04-06T19:43:11.905Z,46.13
2024-04-06T19:45:03.501Z,46.19
2024-04-06T19:46:54.686Z,46.51
2024-04-06T19:48:45.766Z,46.56
2024-04-06T19:50:36.982Z,46.88
2024-04-06T19:52:28.368Z,47.12
2024-04-06T19:54:19.909Z,47.48
2024-04-06T19:56:11.583Z,47.77
2024-04-06T19:58:02.583Z,47.88
2024-04-06T19:59:53.688Z,48.14
2024-04-06T20:01:44.887Z,48.07
2024-04-06T20:03:36.474Z,48.56
2024-04-06T20:05:28.033Z,48.64
2024-04-06T20:07:21.433Z,48.91
2024-04-06T20:09:16.866Z,48.67
2024-04-06T20:11:08.380Z,48.80
2024-04-06T20:13:00.286Z,48.92
2024-04-06T20:14:51.722Z,49.18
2024-04-06T20:16:42.680Z,49.17
2024-04-06T20:18:34.003Z,49.35
2024-04-06T20:20:25.622Z,49.36
2024-04-06T20:22:49.552Z,49.32
2024-04-06T20:24:59.298Z,49.29
2024-04-06T20:26:50.645Z,49.43
2024-04-06T20:28:43.619Z,49.60
2024-04-06T20:30:35.199Z,49.68
2024-04-06T20:32:26.282Z,49.95
2024-04-06T20:34:17.684Z,49.70
2024-04-06T20:36:09.226Z,49.81
2024-04-06T20:38:00.165Z,49.96
2024-04-06T20:39:51.426Z,50.22
2024-04-06T20:41:42.690Z,50.14
2024-04-06T20:43:33.858Z,50.26
2024-04-06T20:45:25.090Z,50.28
2024-04-06T20:47:16.439Z,50.27
2024-04-06T20:49:07.746Z,50.60
2024-04-06T20:50:58.999Z,50.80
2024-04-06T20:52:50.163Z,50.70
2024-04-06T20:54:41.152Z,50.74
2024-04-06T20:56:33.663Z,51.00
2024-04-06T20:58:24.833Z,51.00
2024-04-06T21:00:16.410Z,51.22
2024-04-06T21:02:08.390Z,51.14
2024-04-06T21:03:59.942Z,51.20
2024-04-06T21:05:50.903Z,51.20
2024-04-06T21:07:42.295Z,51.17
2024-04-06T21:09:34.068Z,51.14
2024-04-06T21:11:28.526Z,51.64
2024-04-06T21:13:19.557Z,51.64
2024-04-06T21:15:24.634Z,51.58
2024-04-06T21:17:16.354Z,51.74
2024-04-06T21:19:07.487Z,51.63
2024-04-06T21:20:58.754Z,51.36
2024-04-06T21:22:49.996Z,50.85
2024-04-06T21:24:41.484Z,51.27
2024-04-06T21:26:32.693Z,51.14
2024-04-06T21:28:23.975Z,51.17
2024-04-06T21:30:18.949Z,51.64
2024-04-06T21:32:10.057Z,52.11
2024-04-06T21:34:01.616Z,52.19
2024-04-06T21:35:52.916Z,52.35
2024-04-06T21:37:46.606Z,52.23
2024-04-06T21:39:38.542Z,51.87
2024-04-06T21:41:29.880Z,51.85
2024-04-06T21:43:21.096Z,51.95
2024-04-06T21:45:12.419Z,52.17
2024-04-06T21:47:03.821Z,52.60
2024-04-06T21:48:54.779Z,52.02
2024-04-06T21:50:45.984Z,52.52
2024-04-06T21:52:37.361Z,52.91
2024-04-06T21:54:29.071Z,52.96
2024-04-06T21:56:21.319Z,52.74
2024-04-06T21:58:12.617Z,52.52
2024-04-06T22:00:07.061Z,52.29
2024-04-06T22:02:01.274Z,52.46
2024-04-06T22:03:52.469Z,52.39
2024-04-06T22:05:43.692Z,52.44
2024-04-06T22:07:34.953Z,52.29
2024-04-06T22:09:26.377Z,52.38
2024-04-06T22:11:17.214Z,52.36
2024-04-06T22:13:09.157Z,52.76
2024-04-06T22:15:00.498Z,52.75
2024-04-06T22:16:52.829Z,53.12
2024-04-06T22:18:44.080Z,53.71
2024-04-06T22:20:35.442Z,53.68
2024-04-06T22:22:26.871Z,53.44
2024-04-06T22:24:19.106Z,53.92
2024-04-06T22:26:10.319Z,54.04
2024-04-06T22:28:01.504Z,54.50
2024-04-06T22:29:54.972Z,54.40
2024-04-06T22:31:46.299Z,54.60
2024-04-06T22:33:37.491Z,54.76
2024-04-06T22:35:29.250Z,54.80
2024-04-06T22:37:20.663Z,54.90
2024-04-06T22:39:11.747Z,55.10
2024-04-06T22:41:03.196Z,55.00
2024-04-06T22:42:54.237Z,55.44
2024-04-06T22:44:45.602Z,55.85
2024-04-06T22:46:37.014Z,56.19
2024-04-06T22:48:28.176Z,56.01
2024-04-06T22:50:19.517Z,56.05
2024-04-06T22:52:12.032Z,56.15
2024-04-06T22:54:03.751Z,56.40
2024-04-06T22:55:54.948Z,56.45
2024-04-06T22:57:46.324Z,56.43
2024-04-06T22:59:38.734Z,56.83
2024-04-06T23:01:30.096Z,56.44
2024-04-06T23:03:21.055Z,56.30
2024-04-06T23:05:12.280Z,56.10
2024-04-06T23:07:03.554Z,56.01
2024-04-06T23:08:54.607Z,55.98
2024-04-06T23:10:45.855Z,56.22
2024-04-06T23:12:37.271Z,56.15
2024-04-06T23:14:28.159Z,56.08
2024-04-06T23:16:19.465Z,56.34
2024-04-06T23:18:10.725Z,56.42
2024-04-06T23:20:01.967Z,56.45
2024-04-06T23:21:53.274Z,56.63
2024-04-06T23:23:46.973Z,56.64
2024-04-06T23:25:38.068Z,56.69
2024-04-06T23:27:30.170Z,56.97
2024-04-06T23:29:21.368Z,56.93
2024-04-06T23:31:12.643Z,56.93
2024-04-06T23:33:04.508Z,57.02
2024-04-06T23:34:55.934Z,56.75
2024-04-06T23:36:47.692Z,56.79
2024-04-06T23:38:39.203Z,56.76
2024-04-06T23:40:30.071Z,56.79
2024-04-06T23:42:22.321Z,56.66
2024-04-06T23:44:13.842Z,56.62
2024-04-06T23:46:05.122Z,56.72
2024-04-06T23:47:55.938Z,56.73
2024-04-06T23:49:47.185Z,56.76
2024-04-06T23:51:39.052Z,56.79
2024-04-06T23:56:49.358Z,56.00
2024-04-06T23:58:41.089Z,56.28
